sensor_id;sensor_type;location;lat;lon;timestamp;P1;durP1;ratioP1;P2;durP2;ratioP2
63173;SDS011;49265;54.526;9.028;2024-01-16T00:00:04;7.30;;;4.18;;
63173;SDS011;49265;54.526;9.028;2024-01-16T00:02:30;7.70;;;3.75;;
63173;SDS011;49265;54.526;9.028;2024-01-16T00:04:56;13.35;;;4.00;;
63173;SDS011;49265;54.526;9.028;2024-01-16T00:07:21;7.47;;;4.68;;
63173;SDS011;49265;54.526;9.028;2024-01-16T00:09:46;10.02;;;4.88;;
63173;SDS011;49265;54.526;9.028;2024-01-16T00:12:12;11.43;;;5.40;;
63173;SDS011;49265;54.526;9.028;2024-01-16T00:14:37;15.52;;;7.65;;
63173;SDS011;49265;54.526;9.028;2024-01-16T00:17:02;14.30;;;6.00;;
63173;SDS011;49265;54.526;9.028;2024-01-16T00:19:28;11.45;;;4.72;;
63173;SDS011;49265;54.526;9.028;2024-01-16T00:21:53;9.77;;;4.32;;
63173;SDS011;49265;54.526;9.028;2024-01-16T00:24:18;9.88;;;4.63;;
63173;SDS011;49265;54.526;9.028;2024-01-16T00:26:44;12.57;;;4.57;;
63173;SDS011;49265;54.526;9.028;2024-01-16T00:29:09;7.53;;;4.38;;
63173;SDS011;49265;54.526;9.028;2024-01-16T00:31:37;9.82;;;5.00;;
63173;SDS011;49265;54.526;9.028;2024-01-16T00:34:02;8.63;;;3.97;;
63173;SDS011;49265;54.526;9.028;2024-01-16T00:36:28;10.65;;;4.00;;
63173;SDS011;49265;54.526;9.028;2024-01-16T00:38:53;7.85;;;3.67;;
63173;SDS011;49265;54.526;9.028;2024-01-16T00:41:19;10.05;;;4.05;;
63173;SDS011;49265;54.526;9.028;2024-01-16T00:43:44;9.23;;;5.15;;
63173;SDS011;49265;54.526;9.028;2024-01-16T00:46:10;8.77;;;5.13;;
63173;SDS011;49265;54.526;9.028;2024-01-16T00:48:35;12.73;;;4.72;;
63173;SDS011;49265;54.526;9.028;2024-01-16T00:51:01;10.18;;;4.35;;
63173;SDS011;49265;54.526;9.028;2024-01-16T00:53:26;8.80;;;4.57;;
63173;SDS011;49265;54.526;9.028;2024-01-16T00:55:52;7.55;;;3.92;;
63173;SDS011;49265;54.526;9.028;2024-01-16T00:58:19;8.88;;;3.67;;
63173;SDS011;49265;54.526;9.028;2024-01-16T01:00:44;8.07;;;3.97;;
63173;SDS011;49265;54.526;9.028;2024-01-16T01:03:10;11.52;;;4.45;;
63173;SDS011;49265;54.526;9.028;2024-01-16T01:05:35;7.47;;;4.07;;
63173;SDS011;49265;54.526;9.028;2024-01-16T01:08:00;7.43;;;4.05;;
63173;SDS011;49265;54.526;9.028;2024-01-16T01:10:25;7.47;;;3.53;;
63173;SDS011;49265;54.526;9.028;2024-01-16T01:12:51;7.82;;;4.57;;
63173;SDS011;49265;54.526;9.028;2024-01-16T01:15:20;9.23;;;3.80;;
63173;SDS011;49265;54.526;9.028;2024-01-16T01:17:47;12.07;;;4.50;;
63173;SDS011;49265;54.526;9.028;2024-01-16T01:20:13;8.45;;;4.05;;
63173;SDS011;49265;54.526;9.028;2024-01-16T01:22:38;11.63;;;3.72;;
63173;SDS011;49265;54.526;9.028;2024-01-16T01:25:04;6.78;;;3.65;;
63173;SDS011;49265;54.526;9.028;2024-01-16T01:27:29;7.07;;;3.67;;
63173;SDS011;49265;54.526;9.028;2024-01-16T01:29:55;7.95;;;3.45;;
63173;SDS011;49265;54.526;9.028;2024-01-16T01:32:20;6.55;;;3.47;;
63173;SDS011;49265;54.526;9.028;2024-01-16T01:34:46;9.98;;;3.28;;
63173;SDS011;49265;54.526;9.028;2024-01-16T01:37:11;9.27;;;3.72;;
63173;SDS011;49265;54.526;9.028;2024-01-16T01:39:36;7.20;;;3.63;;
63173;SDS011;49265;54.526;9.028;2024-01-16T01:42:01;5.32;;;3.08;;
63173;SDS011;49265;54.526;9.028;2024-01-16T01:44:27;9.40;;;4.22;;
63173;SDS011;49265;54.526;9.028;2024-01-16T01:46:55;6.72;;;3.28;;
63173;SDS011;49265;54.526;9.028;2024-01-16T01:49:21;8.25;;;3.33;;
63173;SDS011;49265;54.526;9.028;2024-01-16T01:51:48;6.53;;;3.63;;
63173;SDS011;49265;54.526;9.028;2024-01-16T01:54:14;7.85;;;3.03;;
63173;SDS011;49265;54.526;9.028;2024-01-16T01:56:42;7.35;;;3.10;;
63173;SDS011;49265;54.526;9.028;2024-01-16T01:59:07;7.00;;;3.22;;
63173;SDS011;49265;54.526;9.028;2024-01-16T02:01:33;11.18;;;3.90;;
63173;SDS011;49265;54.526;9.028;2024-01-16T02:03:59;9.02;;;3.45;;
63173;SDS011;49265;54.526;9.028;2024-01-16T02:06:25;8.40;;;3.08;;
63173;SDS011;49265;54.526;9.028;2024-01-16T02:08:50;10.43;;;3.75;;
63173;SDS011;49265;54.526;9.028;2024-01-16T02:11:16;7.25;;;3.60;;
63173;SDS011;49265;54.526;9.028;2024-01-16T02:13:41;8.93;;;3.47;;
63173;SDS011;49265;54.526;9.028;2024-01-16T02:16:16;9.95;;;4.53;;
63173;SDS011;49265;54.526;9.028;2024-01-16T02:18:42;8.80;;;3.47;;
63173;SDS011;49265;54.526;9.028;2024-01-16T02:21:07;7.65;;;3.47;;
63173;SDS011;49265;54.526;9.028;2024-01-16T02:23:32;6.95;;;3.72;;
63173;SDS011;49265;54.526;9.028;2024-01-16T02:25:58;10.43;;;3.47;;
63173;SDS011;49265;54.526;9.028;2024-01-16T02:28:24;15.25;;;4.30;;
63173;SDS011;49265;54.526;9.028;2024-01-16T02:30:49;7.75;;;4.00;;
63173;SDS011;49265;54.526;9.028;2024-01-16T02:33:14;10.17;;;4.17;;
63173;SDS011;49265;54.526;9.028;2024-01-16T02:35:40;7.32;;;3.63;;
63173;SDS011;49265;54.526;9.028;2024-01-16T02:38:05;6.82;;;3.42;;
63173;SDS011;49265;54.526;9.028;2024-01-16T02:40:30;8.00;;;4.07;;
63173;SDS011;49265;54.526;9.028;2024-01-16T02:42:56;8.43;;;3.33;;
63173;SDS011;49265;54.526;9.028;2024-01-16T02:45:21;9.48;;;4.05;;
63173;SDS011;49265;54.526;9.028;2024-01-16T02:47:47;7.63;;;3.70;;
63173;SDS011;49265;54.526;9.028;2024-01-16T02:50:13;9.52;;;4.20;;
63173;SDS011;49265;54.526;9.028;2024-01-16T02:52:38;9.27;;;3.97;;
63173;SDS011;49265;54.526;9.028;2024-01-16T02:55:03;9.98;;;3.88;;
63173;SDS011;49265;54.526;9.028;2024-01-16T02:57:30;9.13;;;4.22;;
63173;SDS011;49265;54.526;9.028;2024-01-16T02:59:55;12.18;;;4.93;;
63173;SDS011;49265;54.526;9.028;2024-01-16T03:02:21;13.18;;;5.00;;
63173;SDS011;49265;54.526;9.028;2024-01-16T03:04:47;10.23;;;4.47;;
63173;SDS011;49265;54.526;9.028;2024-01-16T03:07:13;7.95;;;4.53;;
63173;SDS011;49265;54.526;9.028;2024-01-16T03:09:38;13.18;;;4.78;;
63173;SDS011;49265;54.526;9.028;2024-01-16T03:12:04;9.57;;;5.00;;
63173;SDS011;49265;54.526;9.028;2024-01-16T03:14:29;11.88;;;5.30;;
63173;SDS011;49265;54.526;9.028;2024-01-16T03:17:00;9.38;;;4.72;;
63173;SDS011;49265;54.526;9.028;2024-01-16T03:19:25;9.23;;;4.60;;
63173;SDS011;49265;54.526;9.028;2024-01-16T03:21:51;8.75;;;4.82;;
63173;SDS011;49265;54.526;9.028;2024-01-16T03:24:17;13.38;;;5.03;;
63173;SDS011;49265;54.526;9.028;2024-01-16T03:26:42;8.15;;;4.40;;
63173;SDS011;49265;54.526;9.028;2024-01-16T03:29:10;9.88;;;4.63;;
63173;SDS011;49265;54.526;9.028;2024-01-16T03:31:36;10.57;;;4.72;;
63173;SDS011;49265;54.526;9.028;2024-01-16T03:34:01;9.10;;;4.30;;
63173;SDS011;49265;54.526;9.028;2024-01-16T03:36:27;10.82;;;4.57;;
63173;SDS011;49265;54.526;9.028;2024-01-16T03:38:52;9.95;;;4.15;;
63173;SDS011;49265;54.526;9.028;2024-01-16T03:41:17;9.30;;;4.47;;
63173;SDS011;49265;54.526;9.028;2024-01-16T03:43:43;8.90;;;3.92;;
63173;SDS011;49265;54.526;9.028;2024-01-16T03:46:10;9.80;;;4.17;;
63173;SDS011;49265;54.526;9.028;2024-01-16T03:48:35;12.02;;;4.93;;
63173;SDS011;49265;54.526;9.028;2024-01-16T03:51:01;11.65;;;4.50;;
63173;SDS011;49265;54.526;9.028;2024-01-16T03:53:27;8.73;;;4.15;;
63173;SDS011;49265;54.526;9.028;2024-01-16T03:55:52;8.93;;;4.43;;
63173;SDS011;49265;54.526;9.028;2024-01-16T03:58:18;8.90;;;4.70;;
63173;SDS011;49265;54.526;9.028;2024-01-16T04:00:44;8.57;;;4.13;;
63173;SDS011;49265;54.526;9.028;2024-01-16T04:03:09;8.57;;;3.63;;
63173;SDS011;49265;54.526;9.028;2024-01-16T04:05:34;8.18;;;3.83;;
63173;SDS011;49265;54.526;9.028;2024-01-16T04:08:00;9.25;;;3.60;;
63173;SDS011;49265;54.526;9.028;2024-01-16T04:10:25;9.80;;;3.90;;
63173;SDS011;49265;54.526;9.028;2024-01-16T04:12:50;10.20;;;3.88;;
63173;SDS011;49265;54.526;9.028;2024-01-16T04:15:15;7.75;;;3.08;;
63173;SDS011;49265;54.526;9.028;2024-01-16T04:17:41;8.40;;;4.20;;
63173;SDS011;49265;54.526;9.028;2024-01-16T04:20:06;5.18;;;2.90;;
63173;SDS011;49265;54.526;9.028;2024-01-16T04:22:32;9.35;;;3.53;;
63173;SDS011;49265;54.526;9.028;2024-01-16T04:24:58;7.55;;;3.20;;
63173;SDS011;49265;54.526;9.028;2024-01-16T04:27:23;5.50;;;2.97;;
63173;SDS011;49265;54.526;9.028;2024-01-16T04:29:50;7.85;;;3.20;;
63173;SDS011;49265;54.526;9.028;2024-01-16T04:32:15;7.35;;;3.80;;
63173;SDS011;49265;54.526;9.028;2024-01-16T04:34:41;6.13;;;3.05;;
63173;SDS011;49265;54.526;9.028;2024-01-16T04:37:06;6.20;;;2.97;;
63173;SDS011;49265;54.526;9.028;2024-01-16T04:39:31;8.23;;;3.33;;
63173;SDS011;49265;54.526;9.028;2024-01-16T04:41:56;11.13;;;3.88;;
63173;SDS011;49265;54.526;9.028;2024-01-16T04:44:22;9.50;;;4.10;;
63173;SDS011;49265;54.526;9.028;2024-01-16T04:46:47;9.75;;;3.97;;
63173;SDS011;49265;54.526;9.028;2024-01-16T04:49:12;8.25;;;4.45;;
63173;SDS011;49265;54.526;9.028;2024-01-16T04:51:38;9.50;;;4.20;;
63173;SDS011;49265;54.526;9.028;2024-01-16T04:54:03;8.70;;;4.50;;
63173;SDS011;49265;54.526;9.028;2024-01-16T04:56:28;9.13;;;4.57;;
63173;SDS011;49265;54.526;9.028;2024-01-16T04:58:54;9.85;;;3.97;;
63173;SDS011;49265;54.526;9.028;2024-01-16T05:01:19;10.75;;;4.30;;
63173;SDS011;49265;54.526;9.028;2024-01-16T05:03:44;9.18;;;4.63;;
63173;SDS011;49265;54.526;9.028;2024-01-16T05:06:13;8.70;;;4.82;;
63173;SDS011;49265;54.526;9.028;2024-01-16T05:08:41;12.30;;;4.50;;
63173;SDS011;49265;54.526;9.028;2024-01-16T05:11:07;9.57;;;4.72;;
63173;SDS011;49265;54.526;9.028;2024-01-16T05:13:32;8.18;;;4.30;;
63173;SDS011;49265;54.526;9.028;2024-01-16T05:15:57;10.77;;;5.20;;
63173;SDS011;49265;54.526;9.028;2024-01-16T05:18:23;10.70;;;4.30;;
63173;SDS011;49265;54.526;9.028;2024-01-16T05:20:48;10.30;;;4.43;;
63173;SDS011;49265;54.526;9.028;2024-01-16T05:23:13;10.65;;;4.50;;
63173;SDS011;49265;54.526;9.028;2024-01-16T05:25:39;13.70;;;5.10;;
63173;SDS011;49265;54.526;9.028;2024-01-16T05:28:04;13.25;;;5.05;;
63173;SDS011;49265;54.526;9.028;2024-01-16T05:30:30;9.95;;;4.63;;
63173;SDS011;49265;54.526;9.028;2024-01-16T05:32:55;16.58;;;5.85;;
63173;SDS011;49265;54.526;9.028;2024-01-16T05:35:26;11.75;;;4.97;;
63173;SDS011;49265;54.526;9.028;2024-01-16T05:37:51;10.88;;;4.90;;
63173;SDS011;49265;54.526;9.028;2024-01-16T05:40:16;11.40;;;5.07;;
63173;SDS011;49265;54.526;9.028;2024-01-16T05:42:42;11.82;;;5.75;;
63173;SDS011;49265;54.526;9.028;2024-01-16T05:45:07;11.90;;;5.15;;
63173;SDS011;49265;54.526;9.028;2024-01-16T05:47:32;12.75;;;4.82;;
63173;SDS011;49265;54.526;9.028;2024-01-16T05:49:58;11.25;;;5.38;;
63173;SDS011;49265;54.526;9.028;2024-01-16T05:52:23;9.02;;;4.85;;
63173;SDS011;49265;54.526;9.028;2024-01-16T05:54:48;13.75;;;5.35;;
63173;SDS011;49265;54.526;9.028;2024-01-16T05:57:14;12.60;;;4.95;;
63173;SDS011;49265;54.526;9.028;2024-01-16T05:59:39;10.52;;;4.93;;
63173;SDS011;49265;54.526;9.028;2024-01-16T06:02:04;9.35;;;4.47;;
63173;SDS011;49265;54.526;9.028;2024-01-16T06:04:30;11.82;;;4.93;;
63173;SDS011;49265;54.526;9.028;2024-01-16T06:06:55;9.68;;;4.75;;
63173;SDS011;49265;54.526;9.028;2024-01-16T06:09:20;12.02;;;4.78;;
63173;SDS011;49265;54.526;9.028;2024-01-16T06:11:46;11.63;;;4.57;;
63173;SDS011;49265;54.526;9.028;2024-01-16T06:14:13;10.63;;;4.28;;
63173;SDS011;49265;54.526;9.028;2024-01-16T06:16:38;11.20;;;4.20;;
63173;SDS011;49265;54.526;9.028;2024-01-16T06:19:03;12.35;;;4.13;;
63173;SDS011;49265;54.526;9.028;2024-01-16T06:21:29;13.45;;;4.90;;
63173;SDS011;49265;54.526;9.028;2024-01-16T06:23:55;10.27;;;4.43;;
63173;SDS011;49265;54.526;9.028;2024-01-16T06:26:20;10.40;;;3.95;;
63173;SDS011;49265;54.526;9.028;2024-01-16T06:28:45;11.70;;;4.72;;
63173;SDS011;49265;54.526;9.028;2024-01-16T06:31:11;10.15;;;4.53;;
63173;SDS011;49265;54.526;9.028;2024-01-16T06:33:37;11.55;;;4.43;;
63173;SDS011;49265;54.526;9.028;2024-01-16T06:36:02;11.30;;;4.60;;
63173;SDS011;49265;54.526;9.028;2024-01-16T06:38:29;13.40;;;4.82;;
63173;SDS011;49265;54.526;9.028;2024-01-16T06:40:55;12.18;;;5.40;;
63173;SDS011;49265;54.526;9.028;2024-01-16T06:43:20;11.50;;;5.03;;
63173;SDS011;49265;54.526;9.028;2024-01-16T06:45:45;13.20;;;5.68;;
63173;SDS011;49265;54.526;9.028;2024-01-16T06:48:11;9.95;;;4.65;;
63173;SDS011;49265;54.526;9.028;2024-01-16T06:50:36;15.10;;;4.78;;
63173;SDS011;49265;54.526;9.028;2024-01-16T06:53:01;10.57;;;4.32;;
63173;SDS011;49265;54.526;9.028;2024-01-16T06:55:27;11.02;;;4.95;;
63173;SDS011;49265;54.526;9.028;2024-01-16T06:57:52;13.85;;;5.18;;
63173;SDS011;49265;54.526;9.028;2024-01-16T07:00:18;9.02;;;4.47;;
63173;SDS011;49265;54.526;9.028;2024-01-16T07:02:43;12.80;;;4.70;;
63173;SDS011;49265;54.526;9.028;2024-01-16T07:05:09;10.18;;;4.50;;
63173;SDS011;49265;54.526;9.028;2024-01-16T07:07:34;9.50;;;4.38;;
63173;SDS011;49265;54.526;9.028;2024-01-16T07:09:59;13.73;;;5.23;;
63173;SDS011;49265;54.526;9.028;2024-01-16T07:12:26;11.02;;;4.32;;
63173;SDS011;49265;54.526;9.028;2024-01-16T07:14:51;10.50;;;4.45;;
63173;SDS011;49265;54.526;9.028;2024-01-16T07:17:16;12.90;;;3.95;;
63173;SDS011;49265;54.526;9.028;2024-01-16T07:19:42;12.30;;;5.05;;
63173;SDS011;49265;54.526;9.028;2024-01-16T07:22:07;10.70;;;4.28;;
63173;SDS011;49265;54.526;9.028;2024-01-16T07:24:32;11.55;;;4.80;;
63173;SDS011;49265;54.526;9.028;2024-01-16T07:26:58;10.13;;;4.20;;
63173;SDS011;49265;54.526;9.028;2024-01-16T07:29:23;9.77;;;4.55;;
63173;SDS011;49265;54.526;9.028;2024-01-16T07:31:48;14.02;;;4.45;;
63173;SDS011;49265;54.526;9.028;2024-01-16T07:34:14;12.55;;;5.00;;
63173;SDS011;49265;54.526;9.028;2024-01-16T07:36:45;8.88;;;4.45;;
63173;SDS011;49265;54.526;9.028;2024-01-16T07:39:10;8.48;;;4.35;;
63173;SDS011;49265;54.526;9.028;2024-01-16T07:41:35;10.32;;;4.32;;
63173;SDS011;49265;54.526;9.028;2024-01-16T07:44:03;8.77;;;3.78;;
63173;SDS011;49265;54.526;9.028;2024-01-16T07:46:28;11.98;;;4.07;;
63173;SDS011;49265;54.526;9.028;2024-01-16T07:48:53;10.70;;;4.00;;
63173;SDS011;49265;54.526;9.028;2024-01-16T07:51:19;12.07;;;4.22;;
63173;SDS011;49265;54.526;9.028;2024-01-16T07:53:44;13.57;;;5.07;;
63173;SDS011;49265;54.526;9.028;2024-01-16T07:56:10;11.82;;;4.97;;
63173;SDS011;49265;54.526;9.028;2024-01-16T07:58:36;15.65;;;5.05;;
63173;SDS011;49265;54.526;9.028;2024-01-16T08:01:02;10.15;;;4.40;;
63173;SDS011;49265;54.526;9.028;2024-01-16T08:03:27;11.98;;;4.07;;
63173;SDS011;49265;54.526;9.028;2024-01-16T08:05:53;10.57;;;4.93;;
63173;SDS011;49265;54.526;9.028;2024-01-16T08:08:18;16.67;;;5.18;;
63173;SDS011;49265;54.526;9.028;2024-01-16T08:10:44;11.52;;;4.75;;
63173;SDS011;49265;54.526;9.028;2024-01-16T08:13:09;17.90;;;5.65;;
63173;SDS011;49265;54.526;9.028;2024-01-16T08:15:34;14.23;;;5.38;;
63173;SDS011;49265;54.526;9.028;2024-01-16T08:18:00;15.00;;;5.93;;
63173;SDS011;49265;54.526;9.028;2024-01-16T08:20:25;11.95;;;5.70;;
63173;SDS011;49265;54.526;9.028;2024-01-16T08:22:51;14.10;;;5.05;;
63173;SDS011;49265;54.526;9.028;2024-01-16T08:25:16;14.10;;;5.40;;
63173;SDS011;49265;54.526;9.028;2024-01-16T08:27:41;14.10;;;5.17;;
63173;SDS011;49265;54.526;9.028;2024-01-16T08:30:09;13.38;;;5.18;;
63173;SDS011;49265;54.526;9.028;2024-01-16T08:32:35;16.60;;;6.30;;
63173;SDS011;49265;54.526;9.028;2024-01-16T08:35:00;12.35;;;5.70;;
63173;SDS011;49265;54.526;9.028;2024-01-16T08:37:25;13.82;;;5.65;;
63173;SDS011;49265;54.526;9.028;2024-01-16T08:39:51;12.63;;;5.32;;
63173;SDS011;49265;54.526;9.028;2024-01-16T08:42:16;11.50;;;5.35;;
63173;SDS011;49265;54.526;9.028;2024-01-16T08:44:42;15.38;;;7.43;;
63173;SDS011;49265;54.526;9.028;2024-01-16T08:47:08;15.50;;;7.70;;
63173;SDS011;49265;54.526;9.028;2024-01-16T08:49:34;14.45;;;8.00;;
63173;SDS011;49265;54.526;9.028;2024-01-16T08:52:00;18.33;;;8.52;;
63173;SDS011;49265;54.526;9.028;2024-01-16T08:54:25;16.02;;;6.93;;
63173;SDS011;49265;54.526;9.028;2024-01-16T08:56:54;11.77;;;5.38;;
63173;SDS011;49265;54.526;9.028;2024-01-16T08:59:20;8.98;;;4.38;;
63173;SDS011;49265;54.526;9.028;2024-01-16T09:01:45;10.93;;;5.18;;
63173;SDS011;49265;54.526;9.028;2024-01-16T09:04:10;11.57;;;5.68;;
63173;SDS011;49265;54.526;9.028;2024-01-16T09:06:36;16.65;;;7.82;;
63173;SDS011;49265;54.526;9.028;2024-01-16T09:09:02;18.15;;;8.93;;
63173;SDS011;49265;54.526;9.028;2024-01-16T09:11:29;16.30;;;8.07;;
63173;SDS011;49265;54.526;9.028;2024-01-16T09:13:55;18.10;;;8.02;;
63173;SDS011;49265;54.526;9.028;2024-01-16T09:16:20;21.52;;;9.07;;
63173;SDS011;49265;54.526;9.028;2024-01-16T09:18:45;16.55;;;7.70;;
63173;SDS011;49265;54.526;9.028;2024-01-16T09:21:11;13.00;;;6.03;;
63173;SDS011;49265;54.526;9.028;2024-01-16T09:23:37;13.98;;;6.15;;
63173;SDS011;49265;54.526;9.028;2024-01-16T09:26:02;13.32;;;6.50;;
63173;SDS011;49265;54.526;9.028;2024-01-16T09:28:27;18.05;;;6.40;;
63173;SDS011;49265;54.526;9.028;2024-01-16T09:30:54;17.13;;;8.70;;
63173;SDS011;49265;54.526;9.028;2024-01-16T09:33:21;16.88;;;8.20;;
63173;SDS011;49265;54.526;9.028;2024-01-16T09:35:47;25.00;;;11.50;;
63173;SDS011;49265;54.526;9.028;2024-01-16T09:38:13;21.27;;;10.35;;
63173;SDS011;49265;54.526;9.028;2024-01-16T09:40:38;17.08;;;7.82;;
63173;SDS011;49265;54.526;9.028;2024-01-16T09:43:03;24.77;;;8.35;;
63173;SDS011;49265;54.526;9.028;2024-01-16T09:45:29;20.48;;;7.90;;
63173;SDS011;49265;54.526;9.028;2024-01-16T09:47:55;16.00;;;7.00;;
63173;SDS011;49265;54.526;9.028;2024-01-16T09:50:22;19.17;;;7.32;;
63173;SDS011;49265;54.526;9.028;2024-01-16T09:52:48;21.58;;;8.48;;
63173;SDS011;49265;54.526;9.028;2024-01-16T09:55:13;18.23;;;7.75;;
63173;SDS011;49265;54.526;9.028;2024-01-16T09:57:39;18.75;;;8.07;;
63173;SDS011;49265;54.526;9.028;2024-01-16T10:00:08;20.10;;;9.60;;
63173;SDS011;49265;54.526;9.028;2024-01-16T10:02:40;18.00;;;8.40;;
63173;SDS011;49265;54.526;9.028;2024-01-16T10:05:06;18.85;;;9.02;;
63173;SDS011;49265;54.526;9.028;2024-01-16T10:07:33;20.67;;;8.77;;
63173;SDS011;49265;54.526;9.028;2024-01-16T10:09:59;22.35;;;9.32;;
63173;SDS011;49265;54.526;9.028;2024-01-16T10:12:25;21.05;;;9.95;;
63173;SDS011;49265;54.526;9.028;2024-01-16T10:14:50;24.17;;;10.95;;
63173;SDS011;49265;54.526;9.028;2024-01-16T10:17:16;17.08;;;8.13;;
63173;SDS011;49265;54.526;9.028;2024-01-16T10:19:50;20.55;;;8.82;;
63173;SDS011;49265;54.526;9.028;2024-01-16T10:22:19;20.27;;;9.23;;
63173;SDS011;49265;54.526;9.028;2024-01-16T10:24:45;21.58;;;9.23;;
63173;SDS011;49265;54.526;9.028;2024-01-16T10:27:10;20.77;;;7.90;;
63173;SDS011;49265;54.526;9.028;2024-01-16T10:29:35;18.52;;;8.48;;
63173;SDS011;49265;54.526;9.028;2024-01-16T10:32:01;19.20;;;8.32;;
63173;SDS011;49265;54.526;9.028;2024-01-16T10:34:27;26.55;;;9.43;;
63173;SDS011;49265;54.526;9.028;2024-01-16T10:36:58;18.58;;;8.20;;
63173;SDS011;49265;54.526;9.028;2024-01-16T10:39:24;22.92;;;7.25;;
63173;SDS011;49265;54.526;9.028;2024-01-16T10:41:56;17.38;;;7.38;;
63173;SDS011;49265;54.526;9.028;2024-01-16T10:44:22;17.45;;;8.13;;
63173;SDS011;49265;54.526;9.028;2024-01-16T10:46:47;20.50;;;7.40;;
63173;SDS011;49265;54.526;9.028;2024-01-16T10:49:12;26.27;;;8.68;;
63173;SDS011;49265;54.526;9.028;2024-01-16T10:51:38;22.92;;;8.30;;
63173;SDS011;49265;54.526;9.028;2024-01-16T10:54:05;18.08;;;7.28;;
63173;SDS011;49265;54.526;9.028;2024-01-16T10:56:36;20.00;;;6.75;;
63173;SDS011;49265;54.526;9.028;2024-01-16T11:01:27;18.13;;;6.32;;
63173;SDS011;49265;54.526;9.028;2024-01-16T11:03:53;16.13;;;5.47;;
63173;SDS011;49265;54.526;9.028;2024-01-16T11:06:22;18.45;;;6.55;;
63173;SDS011;49265;54.526;9.028;2024-01-16T11:08:48;16.17;;;5.72;;
63173;SDS011;49265;54.526;9.028;2024-01-16T11:11:14;19.42;;;7.13;;
63173;SDS011;49265;54.526;9.028;2024-01-16T11:13:40;17.13;;;5.80;;
63173;SDS011;49265;54.526;9.028;2024-01-16T11:16:06;20.60;;;7.38;;
63173;SDS011;49265;54.526;9.028;2024-01-16T11:18:33;12.90;;;5.43;;
63173;SDS011;49265;54.526;9.028;2024-01-16T11:21:00;14.55;;;5.32;;
63173;SDS011;49265;54.526;9.028;2024-01-16T11:23:26;26.77;;;6.88;;
63173;SDS011;49265;54.526;9.028;2024-01-16T11:25:51;16.70;;;7.13;;
63173;SDS011;49265;54.526;9.028;2024-01-16T11:28:17;13.32;;;6.28;;
63173;SDS011;49265;54.526;9.028;2024-01-16T11:30:44;13.57;;;4.30;;
63173;SDS011;49265;54.526;9.028;2024-01-16T11:35:53;9.13;;;4.22;;
63173;SDS011;49265;54.526;9.028;2024-01-16T11:38:19;9.53;;;4.00;;
63173;SDS011;49265;54.526;9.028;2024-01-16T11:40:46;8.20;;;4.13;;
63173;SDS011;49265;54.526;9.028;2024-01-16T11:45:57;10.45;;;4.78;;
63173;SDS011;49265;54.526;9.028;2024-01-16T11:48:23;7.55;;;3.55;;
63173;SDS011;49265;54.526;9.028;2024-01-16T11:50:49;10.13;;;4.30;;
63173;SDS011;49265;54.526;9.028;2024-01-16T11:53:34;12.07;;;5.70;;
63173;SDS011;49265;54.526;9.028;2024-01-16T12:01:27;10.93;;;4.70;;
63173;SDS011;49265;54.526;9.028;2024-01-16T12:04:03;11.88;;;4.85;;
63173;SDS011;49265;54.526;9.028;2024-01-16T12:06:30;14.63;;;5.15;;
63173;SDS011;49265;54.526;9.028;2024-01-16T12:09:10;12.25;;;5.68;;
63173;SDS011;49265;54.526;9.028;2024-01-16T12:11:35;15.48;;;6.05;;
63173;SDS011;49265;54.526;9.028;2024-01-16T12:14:04;12.63;;;5.65;;
63173;SDS011;49265;54.526;9.028;2024-01-16T12:16:29;25.38;;;10.55;;
63173;SDS011;49265;54.526;9.028;2024-01-16T12:19:05;18.98;;;7.90;;
63173;SDS011;49265;54.526;9.028;2024-01-16T12:21:30;12.60;;;6.60;;
63173;SDS011;49265;54.526;9.028;2024-01-16T12:23:58;13.07;;;6.43;;
63173;SDS011;49265;54.526;9.028;2024-01-16T12:26:23;11.25;;;4.95;;
63173;SDS011;49265;54.526;9.028;2024-01-16T12:28:52;9.80;;;4.95;;
63173;SDS011;49265;54.526;9.028;2024-01-16T12:31:18;10.18;;;5.10;;
63173;SDS011;49265;54.526;9.028;2024-01-16T12:33:43;9.10;;;4.43;;
63173;SDS011;49265;54.526;9.028;2024-01-16T12:36:09;9.23;;;4.60;;
63173;SDS011;49265;54.526;9.028;2024-01-16T12:38:35;9.35;;;4.35;;
63173;SDS011;49265;54.526;9.028;2024-01-16T12:41:01;12.77;;;5.03;;
63173;SDS011;49265;54.526;9.028;2024-01-16T12:43:27;10.63;;;4.75;;
63173;SDS011;49265;54.526;9.028;2024-01-16T12:45:56;9.68;;;4.72;;
63173;SDS011;49265;54.526;9.028;2024-01-16T12:48:22;9.40;;;4.53;;
63173;SDS011;49265;54.526;9.028;2024-01-16T12:50:48;10.55;;;5.28;;
63173;SDS011;49265;54.526;9.028;2024-01-16T12:53:13;10.03;;;4.93;;
63173;SDS011;49265;54.526;9.028;2024-01-16T12:55:39;13.05;;;5.78;;
63173;SDS011;49265;54.526;9.028;2024-01-16T12:58:38;10.57;;;4.70;;
63173;SDS011;49265;54.526;9.028;2024-01-16T13:00:57;10.60;;;4.82;;
63173;SDS011;49265;54.526;9.028;2024-01-16T13:03:24;27.90;;;13.43;;
63173;SDS011;49265;54.526;9.028;2024-01-16T13:05:55;10.57;;;4.60;;
63173;SDS011;49265;54.526;9.028;2024-01-16T13:08:20;15.02;;;7.70;;
63173;SDS011;49265;54.526;9.028;2024-01-16T13:11:01;11.38;;;5.22;;
63173;SDS011;49265;54.526;9.028;2024-01-16T13:13:26;13.43;;;5.93;;
63173;SDS011;49265;54.526;9.028;2024-01-16T13:15:51;11.57;;;5.07;;
63173;SDS011;49265;54.526;9.028;2024-01-16T13:18:17;12.65;;;6.00;;
63173;SDS011;49265;54.526;9.028;2024-01-16T13:20:43;20.88;;;11.77;;
63173;SDS011;49265;54.526;9.028;2024-01-16T13:23:09;17.67;;;9.00;;
63173;SDS011;49265;54.526;9.028;2024-01-16T13:25:34;25.83;;;13.15;;
63173;SDS011;49265;54.526;9.028;2024-01-16T13:27:59;21.42;;;11.15;;
63173;SDS011;49265;54.526;9.028;2024-01-16T13:30:25;20.30;;;9.23;;
63173;SDS011;49265;54.526;9.028;2024-01-16T13:32:50;20.42;;;9.77;;
63173;SDS011;49265;54.526;9.028;2024-01-16T13:35:15;13.57;;;6.82;;
63173;SDS011;49265;54.526;9.028;2024-01-16T13:37:41;10.77;;;5.25;;
63173;SDS011;49265;54.526;9.028;2024-01-16T13:40:06;15.40;;;8.25;;
63173;SDS011;49265;54.526;9.028;2024-01-16T13:42:40;12.45;;;6.28;;
63173;SDS011;49265;54.526;9.028;2024-01-16T13:45:07;11.60;;;5.38;;
63173;SDS011;49265;54.526;9.028;2024-01-16T13:47:33;16.83;;;7.30;;
63173;SDS011;49265;54.526;9.028;2024-01-16T13:49:59;25.75;;;10.45;;
63173;SDS011;49265;54.526;9.028;2024-01-16T13:52:24;39.10;;;14.55;;
63173;SDS011;49265;54.526;9.028;2024-01-16T13:54:49;21.65;;;9.95;;
63173;SDS011;49265;54.526;9.028;2024-01-16T13:57:14;14.40;;;6.13;;
63173;SDS011;49265;54.526;9.028;2024-01-16T13:59:40;11.57;;;5.27;;
63173;SDS011;49265;54.526;9.028;2024-01-16T14:02:05;10.88;;;5.35;;
63173;SDS011;49265;54.526;9.028;2024-01-16T14:04:32;9.60;;;5.25;;
63173;SDS011;49265;54.526;9.028;2024-01-16T14:06:57;12.43;;;6.35;;
63173;SDS011;49265;54.526;9.028;2024-01-16T14:09:22;12.13;;;5.68;;
63173;SDS011;49265;54.526;9.028;2024-01-16T14:11:48;16.30;;;7.40;;
63173;SDS011;49265;54.526;9.028;2024-01-16T14:14:13;9.60;;;5.22;;
63173;SDS011;49265;54.526;9.028;2024-01-16T14:16:39;10.82;;;5.35;;
63173;SDS011;49265;54.526;9.028;2024-01-16T14:19:05;10.38;;;5.78;;
63173;SDS011;49265;54.526;9.028;2024-01-16T14:21:30;12.85;;;4.68;;
63173;SDS011;49265;54.526;9.028;2024-01-16T14:23:55;12.40;;;4.23;;
63173;SDS011;49265;54.526;9.028;2024-01-16T14:26:21;9.13;;;4.72;;
63173;SDS011;49265;54.526;9.028;2024-01-16T14:28:46;6.78;;;4.10;;
63173;SDS011;49265;54.526;9.028;2024-01-16T14:31:11;10.73;;;4.60;;
63173;SDS011;49265;54.526;9.028;2024-01-16T14:33:37;14.25;;;5.15;;
63173;SDS011;49265;54.526;9.028;2024-01-16T14:36:02;13.27;;;4.72;;
63173;SDS011;49265;54.526;9.028;2024-01-16T14:38:30;9.10;;;4.43;;
63173;SDS011;49265;54.526;9.028;2024-01-16T14:40:56;11.93;;;3.70;;
63173;SDS011;49265;54.526;9.028;2024-01-16T14:43:22;6.18;;;3.55;;